x

Ilm3 - 27 Miles Se Of Wrightsville Beach, Nc (41037) Weather Station

2:00 - Wed 23rd Apr 2014 All times are EDT. -4 hours from GMT.

  • Wind
    2mph, 4mph gusts
  • Air Temp 67°f
  • Sea Pressure 1009.1mb
  • Ilm3 - 27 Miles Se Of Wrightsville Beach, Nc
  • Ilm3 - 27 Miles Se Of Wrightsville Beach, Nc

More Historic Weather Station data

Upgrade to MSW Pro to gain access to the past 30 days of data for over 8000 Wavebouys and Weather Stations around the globe.

Join Pro

Comparision Forecast

View Surf forecast
   
mer. 04/23 2:00 2 4 mph 1009.1mb 67f
1:00 4
mph
1009.5mb 66f
12:00 7 11 mph 1009.9mb 65f
11:00 11 16 mph 1009.9mb 63f
10:00 11 13 mph 1009.4mb 62f
9:00 16 20 mph 1008.3mb 62f
8:00 18 20 mph 1008mb 62f
7:00 16 20 mph 1006.5mb 62f
6:00 20 25 mph 1005.7mb 62f
5:00 18 22 mph 1004.8mb 63f
4:00 16 20 mph 1005.1mb 64f
3:00 16 18 mph 1005.2mb 64f
2:00 16 20 mph 1006.5mb 66f
1:00 18 20 mph 1006.4mb 65f
12:00 18 20 mph 1007.1mb 64f
mar. 04/22 11:00 25 27 mph 1005.9mb 64f
10:00 25 29 mph 1006.3mb 65f
8:00 20 27 mph 1005.6mb 65f
7:00 25 29 mph 1005.1mb 65f
6:00 20 25 mph 1005.7mb 66f
5:00 20 25 mph 1005.9mb 65f
4:00 20 25 mph 1006.2mb 65f
3:00 20 22 mph 1007mb 64f
2:00 18 22 mph 1007.5mb 64f
1:00 16 20 mph 1007.8mb 64f
12:00 18 22 mph 1008.8mb 63f
11:00 16 22 mph 1009.7mb 63f
10:00 18 25 mph 1009.8mb 63f
9:00 16 18 mph 1010.3mb 62f
8:00 11 16 mph 1010.8mb 63f
7:00 13 16 mph 1011.2mb 63f
6:00 9 11 mph 1011mb 62f
5:00 9 13 mph 1011mb 61f
4:00 7 11 mph 1011.2mb 62f
3:00 2 4 mph 1010.8mb 62f
2:00 4 7 mph 1011.5mb 62f
1:00 7 9 mph 1012mb 63f
12:00 7
mph
1012.7mb 63f
lun. 04/21 11:00 7 9 mph 1012.9mb 64f
10:00 9 11 mph 1013.3mb 64f
9:00 9 11 mph 1012.9mb 64f
8:00 11 16 mph 1012.6mb 63f
7:00 11 13 mph 1013mb 64f
6:00 11 13 mph 1013.6mb 63f
5:00 13 16 mph 1013.9mb 63f
4:00 13 16 mph 1014.5mb 62f
3:00 18 20 mph 1015.1mb 62f
1:00 20 25 mph 1016.1mb 59f
12:00 22 27 mph 1015.6mb 58f
11:00 25 27 mph 1014.3mb 56f
10:00 29 36 mph 1014.7mb 55f
9:00 27 31 mph 1014.3mb 54f
8:00 31 36 mph 1013.3mb 53f
7:00 31 36 mph 1013.4mb 54f
6:00 29 36 mph 1013.2mb 54f
4:00 34 38 mph 1012.8mb 53f
3:00 31 38 mph 1013mb 53f
2:00 31 36 mph 1013.9mb 54f
1:00 34 43 mph 1014.3mb 54f
12:00 36 45 mph 1014.8mb 54f
dim. 04/20 11:00 36 40 mph 1014.5mb 54f
10:00 38 45 mph 1014.2mb 54f
9:00 36 45 mph 1014.1mb 55f
8:00 38 49 mph 1014.3mb 56f
7:00 27 34 mph 1013.5mb 55f
6:00 38 47 mph 1013.7mb 55f
5:00 40 47 mph 1013.8mb 55f
4:00 34 40 mph 1014mb 56f
3:00 40 45 mph 1013.8mb 56f
2:00 38 45 mph 1015.2mb 54f
1:00 34 45 mph 1014.9mb 55f
12:00 38 47 mph 1013.9mb 55f
11:00 38 47 mph 1014.5mb 54f
10:00 31 36 mph 1015.1mb 54f
9:00 29 38 mph 1015mb 54f
8:00 29 38 mph 1015mb 54f
7:00 31 38 mph 1014.6mb 55f
6:00 31 36 mph 1013.4mb 56f
5:00 31 36 mph 1013.3mb 57f
4:00 36 40 mph 1014.2mb 56f
3:00 36 43 mph 1014.4mb 56f
2:00 31 40 mph 1015.4mb 56f
1:00 40 47 mph 1015mb 56f
12:00 34 43 mph 1015.7mb 55f
sam. 04/19 11:00 34 40 mph 1015.3mb 55f
10:00 36 43 mph 1015.7mb 54f
9:00 40 47 mph 1015.9mb 54f
8:00 34 40 mph 1016.2mb 55f